createdAt,value
2017-11-27T07:38:05.366Z,3.65
2017-11-27T07:40:33.625Z,3.37
2017-11-27T07:43:01.119Z,2.85
2017-11-27T07:45:28.616Z,3.80
2017-11-27T07:47:56.097Z,4.15
2017-11-27T07:50:23.606Z,5.30
2017-11-27T07:52:51.122Z,3.85
2017-11-27T07:55:18.616Z,3.50
2017-11-27T07:57:46.102Z,3.80
2017-11-27T08:00:13.565Z,4.32
2017-11-27T08:02:41.047Z,4.68
2017-11-27T08:05:08.512Z,3.70
2017-11-27T08:07:36.021Z,3.65
2017-11-27T08:10:03.497Z,4.32
2017-11-27T08:12:30.967Z,3.80
2017-11-27T08:14:58.460Z,3.10
2017-11-27T08:17:25.915Z,4.32
2017-11-27T08:19:54.196Z,4.00
2017-11-27T08:22:22.454Z,3.67
2017-11-27T08:24:49.916Z,3.75
2017-11-27T08:27:17.401Z,4.15
2017-11-27T08:29:45.658Z,3.50
2017-11-27T08:32:13.148Z,3.55
2017-11-27T08:34:40.629Z,3.70
2017-11-27T08:37:08.127Z,3.42
2017-11-27T08:39:36.133Z,4.30
2017-11-27T08:42:03.592Z,3.75
2017-11-27T08:44:31.101Z,3.87
2017-11-27T08:46:58.591Z,4.07
2017-11-27T08:49:26.835Z,3.95
2017-11-27T08:51:54.320Z,4.43
2017-11-27T08:54:22.569Z,3.70
2017-11-27T08:56:50.080Z,4.22
2017-11-27T08:59:17.552Z,4.37
2017-11-27T09:01:45.576Z,2.80
2017-11-27T09:04:13.065Z,4.15
2017-11-27T09:06:40.579Z,3.53
2017-11-27T09:09:08.058Z,4.65
2017-11-27T09:11:35.529Z,4.45
2017-11-27T09:14:03.819Z,4.15
2017-11-27T09:16:31.285Z,2.80
2017-11-27T09:18:58.770Z,2.83
2017-11-27T09:21:26.251Z,4.12
2017-11-27T09:23:53.736Z,9.52
2017-11-27T09:26:22.012Z,12.68
2017-11-27T09:28:50.236Z,6.28
2017-11-27T09:31:17.775Z,4.70
2017-11-27T09:33:45.250Z,4.00
2017-11-27T09:36:12.717Z,3.10
2017-11-27T09:38:40.214Z,3.25
2017-11-27T09:41:07.689Z,4.28
2017-11-27T09:43:35.952Z,3.58
2017-11-27T09:46:04.211Z,4.00
2017-11-27T09:48:31.685Z,4.40
2017-11-27T09:50:59.920Z,3.40
2017-11-27T09:53:27.404Z,3.97
2017-11-27T09:55:54.892Z,4.00
2017-11-27T09:58:23.152Z,3.72
2017-11-27T10:00:50.642Z,3.60
2017-11-27T10:03:18.101Z,3.85
2017-11-27T10:05:45.611Z,3.20
2017-11-27T10:08:13.074Z,3.47
2017-11-27T10:10:40.589Z,3.47
2017-11-27T10:13:08.071Z,3.40
2017-11-27T10:15:35.547Z,3.33
2017-11-27T10:18:03.041Z,3.40
2017-11-27T10:20:31.308Z,2.97
2017-11-27T10:22:59.560Z,3.20
2017-11-27T10:25:27.025Z,3.40
2017-11-27T10:27:54.538Z,3.55
2017-11-27T10:30:21.997Z,3.03
2017-11-27T10:32:49.493Z,4.65
2017-11-27T10:35:17.003Z,3.03
2017-11-27T10:37:44.490Z,3.25
2017-11-27T10:40:11.998Z,2.62
2017-11-27T10:42:40.223Z,2.37
2017-11-27T10:45:07.692Z,3.37
2017-11-27T10:47:35.189Z,2.50
2017-11-27T10:50:03.440Z,2.75
2017-11-27T10:52:30.962Z,2.95
2017-11-27T10:54:58.429Z,3.08
2017-11-27T10:57:25.927Z,3.20
2017-11-27T10:59:53.393Z,3.08
2017-11-27T11:02:21.619Z,5.20
2017-11-27T11:04:49.110Z,4.05
2017-11-27T11:07:16.588Z,4.05
2017-11-27T11:09:44.850Z,4.50
2017-11-27T11:12:12.337Z,3.15
2017-11-27T11:14:40.646Z,3.20
2017-11-27T11:17:08.120Z,3.78
2017-11-27T11:19:35.574Z,2.90
2017-11-27T11:22:03.845Z,2.30
2017-11-27T11:24:31.338Z,2.40
2017-11-27T11:26:58.862Z,2.42
2017-11-27T11:29:26.340Z,3.35
2017-11-27T11:31:53.797Z,2.72
2017-11-27T11:34:21.317Z,2.90
2017-11-27T11:36:48.774Z,3.92
2017-11-27T11:39:16.277Z,5.03
2017-11-27T11:41:43.757Z,2.50
2017-11-27T11:44:11.290Z,2.62
2017-11-27T11:46:38.782Z,3.03
2017-11-27T11:49:07.017Z,3.40
2017-11-27T11:51:34.521Z,2.70
2017-11-27T11:54:02.737Z,1.80
2017-11-27T11:56:30.210Z,2.35
2017-11-27T11:58:57.709Z,2.70
2017-11-27T12:01:25.942Z,2.53
2017-11-27T12:03:53.443Z,4.57
2017-11-27T12:06:21.697Z,3.05
2017-11-27T12:08:49.198Z,3.40
2017-11-27T12:11:17.466Z,2.35
2017-11-27T12:13:45.696Z,2.30
2017-11-27T12:16:13.157Z,2.45
2017-11-27T12:18:40.661Z,2.62
2017-11-27T12:21:08.933Z,2.03
2017-11-27T12:23:37.183Z,1.85
2017-11-27T12:26:04.694Z,2.10
2017-11-27T12:28:32.176Z,2.37
2017-11-27T12:30:59.727Z,1.85
2017-11-27T12:33:27.240Z,2.33
2017-11-27T12:35:55.469Z,2.30
2017-11-27T12:38:22.985Z,2.92
2017-11-27T12:40:51.245Z,2.28
2017-11-27T12:43:18.728Z,2.62
2017-11-27T12:45:46.188Z,1.85
2017-11-27T12:48:13.696Z,2.10
2017-11-27T12:50:41.201Z,2.15
2017-11-27T12:53:09.441Z,1.90
2017-11-27T12:55:36.912Z,2.22
2017-11-27T12:58:04.431Z,2.53
2017-11-27T13:00:31.893Z,3.15
2017-11-27T13:02:59.402Z,2.47
2017-11-27T13:05:27.649Z,2.67
2017-11-27T13:07:55.120Z,2.78
2017-11-27T13:10:22.630Z,2.50
2017-11-27T13:12:50.127Z,2.60
2017-11-27T13:15:17.651Z,3.03
2017-11-27T13:17:45.126Z,3.60
2017-11-27T13:20:12.609Z,2.97
2017-11-27T13:22:40.100Z,2.92
2017-11-27T13:25:08.440Z,2.65
2017-11-27T13:27:35.938Z,2.42
2017-11-27T13:30:04.163Z,3.60
2017-11-27T13:32:31.662Z,2.28
2017-11-27T13:34:59.912Z,2.53
2017-11-27T13:37:28.164Z,2.60
2017-11-27T13:39:55.678Z,2.35
2017-11-27T13:42:23.908Z,2.15
2017-11-27T13:44:51.409Z,2.40
2017-11-27T13:47:19.650Z,2.65
2017-11-27T13:49:47.109Z,2.15
2017-11-27T13:52:14.610Z,2.45
2017-11-27T13:54:42.867Z,2.03
2017-11-27T13:57:11.173Z,2.28
2017-11-27T13:59:38.664Z,2.58
2017-11-27T14:02:06.132Z,2.83
2017-11-27T14:04:33.632Z,2.45
2017-11-27T14:07:01.907Z,2.67
2017-11-27T14:09:30.169Z,2.45
2017-11-27T14:11:57.674Z,2.75
2017-11-27T14:14:25.192Z,2.80
2017-11-27T14:16:52.682Z,2.75
2017-11-27T14:19:20.268Z,2.50
2017-11-27T14:21:47.760Z,2.65
2017-11-27T14:24:15.268Z,3.30
2017-11-27T14:26:42.757Z,5.78
2017-11-27T14:29:10.251Z,3.10
2017-11-27T14:31:38.481Z,3.30
2017-11-27T14:34:05.979Z,2.72
2017-11-27T14:36:34.240Z,2.90
2017-11-27T14:39:01.705Z,2.40
2017-11-27T14:41:30.707Z,2.85
2017-11-27T14:43:58.188Z,2.70
2017-11-27T14:46:25.811Z,3.20
2017-11-27T14:48:53.269Z,2.70
2017-11-27T14:51:20.756Z,3.00
2017-11-27T14:53:49.020Z,2.60
2017-11-27T14:56:16.494Z,3.10
2017-11-27T14:58:44.783Z,2.72
2017-11-27T15:01:12.240Z,2.92
2017-11-27T15:03:39.752Z,3.22
2017-11-27T15:06:07.233Z,3.20
2017-11-27T15:08:35.462Z,3.15
2017-11-27T15:11:02.973Z,3.00
2017-11-27T15:13:31.201Z,3.47
2017-11-27T15:15:58.692Z,3.42
2017-11-27T15:18:26.307Z,3.15
2017-11-27T15:20:53.769Z,4.05
2017-11-27T15:23:21.261Z,4.25
2017-11-27T15:25:48.723Z,3.58
2017-11-27T15:28:16.232Z,3.60
2017-11-27T15:30:43.705Z,4.85
2017-11-27T15:33:11.181Z,4.50
2017-11-27T15:35:38.673Z,2.95
2017-11-27T15:38:06.909Z,3.37
2017-11-27T15:40:34.413Z,3.35
2017-11-27T15:43:02.653Z,3.17
2017-11-27T15:45:30.172Z,3.28
2017-11-27T15:47:57.628Z,3.50
2017-11-27T15:50:25.889Z,2.90
2017-11-27T15:52:54.131Z,3.65
2017-11-27T15:55:21.617Z,3.50
2017-11-27T15:57:49.121Z,3.35
2017-11-27T16:00:16.602Z,3.25
2017-11-27T16:02:44.078Z,3.03
2017-11-27T16:05:11.571Z,3.62
2017-11-27T16:07:39.033Z,3.17
2017-11-27T16:10:06.534Z,3.10
2017-11-27T16:12:34.014Z,4.07
2017-11-27T16:15:01.478Z,4.25
2017-11-27T16:17:28.985Z,4.05
2017-11-27T16:19:56.459Z,4.20
2017-11-27T16:22:23.953Z,3.97
2017-11-27T16:24:52.184Z,4.93
2017-11-27T16:27:19.682Z,3.80
2017-11-27T16:29:47.175Z,5.22
2017-11-27T16:32:14.638Z,4.00
2017-11-27T16:34:42.141Z,4.30
2017-11-27T16:37:09.639Z,3.05
2017-11-27T16:39:37.913Z,4.43
2017-11-27T16:42:06.172Z,10.93
2017-11-27T16:44:33.653Z,5.53
2017-11-27T16:47:01.922Z,4.00
2017-11-27T16:49:30.199Z,5.10
2017-11-27T16:51:58.453Z,4.28
2017-11-27T16:54:25.941Z,3.95
2017-11-27T16:56:54.178Z,4.40
2017-11-27T16:59:21.724Z,3.42
2017-11-27T17:01:49.200Z,3.80
2017-11-27T17:04:16.721Z,3.22
2017-11-27T17:06:44.238Z,3.25
2017-11-27T17:09:11.689Z,3.30
2017-11-27T17:11:39.258Z,3.62
2017-11-27T17:14:06.730Z,4.30
2017-11-27T17:16:35.000Z,4.53
2017-11-27T17:19:03.264Z,4.28
2017-11-27T17:21:31.516Z,3.10
2017-11-27T17:23:59.017Z,3.70
2017-11-27T17:26:27.274Z,4.10
2017-11-27T17:28:54.792Z,3.90
2017-11-27T17:31:22.261Z,3.58
2017-11-27T17:33:49.714Z,3.20
2017-11-27T17:36:17.223Z,3.67
2017-11-27T17:38:45.477Z,4.45
2017-11-27T17:41:12.944Z,3.90
2017-11-27T17:43:40.454Z,4.70
2017-11-27T17:46:07.910Z,4.65
2017-11-27T17:48:35.461Z,5.00
2017-11-27T17:51:02.957Z,4.72
2017-11-27T17:53:30.467Z,3.20
2017-11-27T17:55:57.965Z,3.62
2017-11-27T17:58:25.435Z,3.62
2017-11-27T18:00:52.957Z,4.60
2017-11-27T18:03:20.432Z,4.20
2017-11-27T18:05:47.931Z,3.28
2017-11-27T18:08:15.422Z,3.67
2017-11-27T18:10:42.904Z,4.55
2017-11-27T18:13:10.414Z,4.00
2017-11-27T18:15:37.874Z,4.22
2017-11-27T18:18:06.177Z,6.07
2017-11-27T18:20:33.648Z,4.60
2017-11-27T18:23:01.184Z,4.72
2017-11-27T18:25:29.429Z,4.18
2017-11-27T18:27:56.947Z,3.53
2017-11-27T18:30:24.445Z,3.60
2017-11-27T18:32:51.961Z,3.40
2017-11-27T18:35:19.460Z,4.22
2017-11-27T18:37:46.971Z,4.10
2017-11-27T18:40:14.465Z,5.68
2017-11-27T18:42:41.945Z,3.10
2017-11-27T18:45:09.493Z,4.50
2017-11-27T18:47:36.953Z,5.62
2017-11-27T18:50:04.443Z,3.70
2017-11-27T18:52:32.696Z,3.85
2017-11-27T18:55:00.168Z,3.95
2017-11-27T18:57:28.429Z,4.40
2017-11-27T18:59:55.922Z,4.03
2017-11-27T19:02:24.177Z,3.78
2017-11-27T19:04:51.680Z,3.70
2017-11-27T19:07:19.150Z,4.35
2017-11-27T19:09:46.660Z,4.40
2017-11-27T19:12:14.921Z,4.18
2017-11-27T19:14:42.414Z,5.03
2017-11-27T19:17:09.900Z,3.70
2017-11-27T19:19:37.400Z,4.68
2017-11-27T19:22:04.875Z,4.80
2017-11-27T19:24:33.185Z,5.50
2017-11-27T19:27:00.661Z,4.30
2017-11-27T19:29:28.210Z,5.53
2017-11-27T19:31:55.771Z,4.20
2017-11-27T19:34:23.236Z,4.22
2017-11-27T19:36:50.746Z,4.72
2017-11-27T19:39:18.240Z,4.43
2017-11-27T19:41:45.765Z,4.35
2017-11-27T19:44:14.034Z,3.15
2017-11-27T19:46:42.300Z,4.03
2017-11-27T19:49:09.860Z,3.03
2017-11-27T19:51:37.404Z,4.15
2017-11-27T19:54:04.892Z,4.10
2017-11-27T19:56:33.133Z,4.18
2017-11-27T19:59:00.640Z,3.80
2017-11-27T20:01:28.866Z,3.40
2017-11-27T20:03:56.386Z,4.28
2017-11-27T20:06:23.899Z,3.90
2017-11-27T20:08:51.361Z,5.07
2017-11-27T20:11:18.860Z,3.10
2017-11-27T20:13:46.317Z,4.28
2017-11-27T20:16:13.810Z,4.78
2017-11-27T20:18:41.300Z,5.20
2017-11-27T20:21:08.812Z,3.90
2017-11-27T20:23:36.423Z,3.45
2017-11-27T20:26:04.766Z,3.70
2017-11-27T20:28:32.291Z,4.00
2017-11-27T20:30:59.849Z,3.78
2017-11-27T20:33:27.357Z,3.30
2017-11-27T20:35:54.888Z,3.58
2017-11-27T20:38:22.396Z,3.80
2017-11-27T20:40:49.915Z,3.75
2017-11-27T20:43:17.369Z,3.70
2017-11-27T20:45:44.853Z,4.20
2017-11-27T20:48:12.409Z,3.72
2017-11-27T20:50:39.902Z,4.35
2017-11-27T20:53:07.380Z,4.07
2017-11-27T20:55:35.646Z,4.47
2017-11-27T20:58:03.945Z,4.65
2017-11-27T21:00:31.437Z,3.70
2017-11-27T21:02:58.920Z,4.05
2017-11-27T21:05:26.403Z,3.85
2017-11-27T21:07:54.799Z,4.45
2017-11-27T21:10:22.306Z,4.30
2017-11-27T21:12:49.771Z,4.37
2017-11-27T21:15:18.118Z,4.70
2017-11-27T21:17:45.626Z,4.37
2017-11-27T21:20:13.896Z,5.00
2017-11-27T21:22:42.186Z,4.62
2017-11-27T21:25:10.421Z,4.85
2017-11-27T21:27:38.011Z,4.07
2017-11-27T21:30:06.413Z,3.45
2017-11-27T21:32:33.897Z,4.35
2017-11-27T21:35:01.380Z,4.53
2017-11-27T21:37:28.919Z,4.95
2017-11-27T21:39:56.431Z,4.50
2017-11-27T21:42:23.893Z,4.68
2017-11-27T21:44:52.176Z,4.80
2017-11-27T21:47:20.406Z,4.72
2017-11-27T21:49:47.921Z,4.20
2017-11-27T21:52:16.246Z,4.95
2017-11-27T21:54:43.755Z,3.25
2017-11-27T21:57:12.008Z,3.62
2017-11-27T21:59:39.493Z,4.68
2017-11-27T22:02:07.781Z,3.75
2017-11-27T22:04:35.258Z,3.85
2017-11-27T22:07:02.717Z,4.15
2017-11-27T22:09:30.211Z,4.53
2017-11-27T22:11:58.705Z,4.20
2017-11-27T22:14:26.209Z,4.03
2017-11-27T22:16:53.692Z,3.95
2017-11-27T22:19:21.141Z,3.70
2017-11-27T22:21:48.637Z,4.43
2017-11-27T22:24:16.864Z,3.92
2017-11-27T22:26:44.368Z,3.08
2017-11-27T22:29:11.837Z,3.40
2017-11-27T22:31:40.113Z,4.25
2017-11-27T22:34:08.367Z,3.92
2017-11-27T22:36:35.858Z,4.12
2017-11-27T22:39:04.137Z,3.47
2017-11-27T22:41:32.391Z,3.15
2017-11-27T22:43:59.893Z,4.05
2017-11-27T22:46:27.407Z,3.42
2017-11-27T22:48:54.868Z,3.70
2017-11-27T22:51:22.358Z,3.33
2017-11-27T22:53:49.866Z,2.97
2017-11-27T22:56:17.336Z,3.25
2017-11-27T22:58:44.792Z,2.83
2017-11-27T23:01:12.276Z,3.58
2017-11-27T23:03:41.277Z,3.17
2017-11-27T23:06:09.544Z,2.83
2017-11-27T23:08:37.789Z,3.08
2017-11-27T23:11:05.249Z,3.08
2017-11-27T23:13:32.746Z,3.33
2017-11-27T23:16:00.985Z,3.03
2017-11-27T23:18:28.486Z,2.85
2017-11-27T23:20:56.718Z,2.35
2017-11-27T23:23:24.174Z,2.70
2017-11-27T23:25:51.657Z,3.53
2017-11-27T23:28:19.109Z,3.22
2017-11-27T23:30:46.629Z,2.85
2017-11-27T23:33:14.099Z,2.87
2017-11-27T23:35:41.577Z,2.85
2017-11-27T23:38:09.031Z,2.30
2017-11-27T23:40:36.498Z,2.60
2017-11-27T23:43:03.994Z,3.37
2017-11-27T23:45:31.464Z,3.15
2017-11-27T23:47:59.000Z,3.37
2017-11-27T23:50:27.236Z,2.97
2017-11-27T23:52:54.731Z,3.15
2017-11-27T23:55:22.980Z,3.00
2017-11-27T23:57:50.449Z,3.30
